createdAt,value
2022-10-23T00:01:01.756Z,100934.22
2022-10-23T00:03:29.648Z,100927.09
2022-10-23T00:05:58.851Z,100917.75
2022-10-23T00:08:26.818Z,100929.38
2022-10-23T00:10:54.715Z,100930.09
2022-10-23T00:13:22.710Z,100938.34
2022-10-23T00:15:53.595Z,100933.00
2022-10-23T00:18:21.477Z,100921.53
2022-10-23T00:20:49.353Z,100932.84
2022-10-23T00:23:18.889Z,100934.41
2022-10-23T00:25:46.788Z,100922.09
2022-10-23T00:28:14.702Z,100933.41
2022-10-23T00:30:42.659Z,100928.28
2022-10-23T00:33:11.110Z,100933.63
2022-10-23T00:35:40.858Z,100923.75
2022-10-23T00:38:08.842Z,100932.84
2022-10-23T00:40:38.628Z,100930.97
2022-10-23T00:43:08.218Z,100920.13
2022-10-23T00:45:36.139Z,100935.50
2022-10-23T00:48:04.892Z,100934.56
2022-10-23T00:50:34.401Z,100938.97
2022-10-23T00:53:05.166Z,100932.53
2022-10-23T00:55:34.333Z,100930.16
2022-10-23T00:58:04.146Z,100913.06
2022-10-23T01:00:42.733Z,100922.31
2022-10-23T01:03:10.711Z,100913.84
2022-10-23T01:05:45.807Z,100914.00
2022-10-23T01:08:21.202Z,100907.72
2022-10-23T01:10:55.280Z,100899.78
2022-10-23T01:13:36.310Z,100907.56
2022-10-23T01:16:12.905Z,100909.59
2022-10-23T01:18:45.608Z,100908.03
2022-10-23T01:21:19.479Z,100911.47
2022-10-23T01:24:08.869Z,100911.75
2022-10-23T01:26:48.642Z,100907.88
2022-10-23T01:29:23.002Z,100907.78
2022-10-23T01:31:57.437Z,100915.06
2022-10-23T01:34:31.768Z,100905.34
2022-10-23T01:37:03.970Z,100901.06
2022-10-23T01:39:36.944Z,100895.13
2022-10-23T01:42:09.649Z,100883.19
2022-10-23T01:44:42.940Z,100899.50
2022-10-23T01:47:14.313Z,100888.63
2022-10-23T01:50:02.080Z,100879.88
2022-10-23T01:52:30.419Z,100881.88
2022-10-23T01:55:01.886Z,100874.03
2022-10-23T01:57:35.231Z,100880.22
2022-10-23T02:00:08.520Z,100880.31
2022-10-23T02:02:53.448Z,100892.09
2022-10-23T02:05:27.480Z,100890.34
2022-10-23T02:07:57.215Z,100887.03
2022-10-23T02:10:30.941Z,100885.31
2022-10-23T02:13:04.376Z,100887.97
2022-10-23T02:15:37.357Z,100887.69
2022-10-23T02:18:10.642Z,100885.25
2022-10-23T02:20:41.683Z,100884.84
2022-10-23T02:23:18.709Z,100881.47
2022-10-23T02:25:54.079Z,100874.97
2022-10-23T02:28:27.540Z,100865.16
2022-10-23T02:31:03.590Z,100864.16
2022-10-23T02:33:33.813Z,100874.53
2022-10-23T02:36:01.724Z,100872.06
2022-10-23T02:38:36.715Z,100867.38
2022-10-23T02:41:18.919Z,100867.16
2022-10-23T02:43:58.245Z,100864.78
2022-10-23T02:46:35.912Z,100866.00
2022-10-23T02:49:11.624Z,100861.94
2022-10-23T02:51:54.010Z,100865.44
2022-10-23T02:54:41.128Z,100871.66
2022-10-23T02:57:17.186Z,100864.50
2022-10-23T02:59:53.490Z,100856.59
2022-10-23T03:02:26.719Z,100859.19
2022-10-23T03:04:56.910Z,100859.44
2022-10-23T03:07:27.441Z,100853.28
2022-10-23T03:10:03.379Z,100845.59
2022-10-23T03:12:32.975Z,100852.47
2022-10-23T03:15:00.943Z,100848.88
2022-10-23T03:17:30.218Z,100837.41
2022-10-23T03:20:00.906Z,100833.00
2022-10-23T03:22:28.846Z,100825.94
2022-10-23T03:24:57.316Z,100828.22
2022-10-23T03:27:25.331Z,100822.97
2022-10-23T03:29:55.949Z,100825.53
2022-10-23T03:32:24.073Z,100832.53
2022-10-23T03:34:53.350Z,100836.63
2022-10-23T03:37:23.178Z,100820.41
2022-10-23T03:39:51.896Z,100828.25
2022-10-23T03:42:19.920Z,100823.66
2022-10-23T03:44:47.906Z,100813.84
2022-10-23T03:47:15.834Z,100816.00
2022-10-23T03:49:43.744Z,100831.16
2022-10-23T03:52:13.165Z,100830.34
2022-10-23T03:54:41.116Z,100820.50
2022-10-23T03:57:09.031Z,100816.69
2022-10-23T03:59:37.044Z,100809.53
2022-10-23T04:02:07.006Z,100808.09
2022-10-23T04:04:35.190Z,100814.38
2022-10-23T04:07:03.172Z,100814.31
2022-10-23T04:09:32.476Z,100822.09
2022-10-23T04:12:00.406Z,100829.59
2022-10-23T04:14:29.810Z,100826.72
2022-10-23T04:16:57.794Z,100827.72
2022-10-23T04:19:25.762Z,100826.28
2022-10-23T04:21:57.165Z,100817.69
2022-10-23T04:24:25.996Z,100822.16
2022-10-23T04:26:55.361Z,100816.84
2022-10-23T04:29:24.597Z,100823.13
2022-10-23T04:31:52.777Z,100817.78
2022-10-23T04:34:20.874Z,100819.94
2022-10-23T04:36:49.020Z,100816.34
2022-10-23T04:39:18.225Z,100811.16
2022-10-23T04:41:46.243Z,100815.69
2022-10-23T04:44:15.714Z,100807.69
2022-10-23T04:46:44.006Z,100808.41
2022-10-23T04:49:11.964Z,100816.66
2022-10-23T04:51:58.491Z,100808.72
2022-10-23T04:54:50.910Z,100816.47
2022-10-23T04:57:30.871Z,100818.56
2022-10-23T05:00:09.760Z,100813.00
2022-10-23T05:02:45.154Z,100820.25
2022-10-23T05:05:17.626Z,100814.75
2022-10-23T05:08:06.015Z,100815.84
2022-10-23T05:10:57.100Z,100816.91
2022-10-23T05:13:24.989Z,100804.53
2022-10-23T05:15:54.988Z,100804.25
2022-10-23T05:18:27.357Z,100816.66
2022-10-23T05:21:00.323Z,100815.50
2022-10-23T05:23:31.138Z,100813.00
2022-10-23T05:26:03.197Z,100818.34
2022-10-23T05:28:32.369Z,100806.75
2022-10-23T05:31:04.466Z,100800.66
2022-10-23T05:33:33.843Z,100794.56
2022-10-23T05:36:02.609Z,100789.53
2022-10-23T05:38:34.574Z,100795.44
2022-10-23T05:41:07.521Z,100790.09
2022-10-23T05:43:35.544Z,100789.19
2022-10-23T05:46:19.942Z,100790.25
2022-10-23T05:49:26.706Z,100797.19
2022-10-23T05:52:29.805Z,100789.53
2022-10-23T05:55:17.033Z,100791.09
2022-10-23T05:58:03.820Z,100786.63
2022-10-23T06:00:50.229Z,100789.53
2022-10-23T06:03:45.362Z,100775.28
2022-10-23T06:06:14.030Z,100774.19
2022-10-23T06:08:47.827Z,100779.56
2022-10-23T06:11:16.462Z,100784.72
2022-10-23T06:13:52.186Z,100782.09
2022-10-23T06:16:25.439Z,100789.25
2022-10-23T06:18:55.194Z,100784.66
2022-10-23T06:21:23.133Z,100781.88
2022-10-23T06:23:51.919Z,100778.44
2022-10-23T06:26:38.027Z,100786.72
2022-10-23T06:29:09.874Z,100790.16
2022-10-23T06:31:38.918Z,100790.38
2022-10-23T06:34:11.777Z,100782.31
2022-10-23T06:36:40.044Z,100782.16
2022-10-23T06:39:29.763Z,100781.09
2022-10-23T06:42:20.257Z,100765.22
2022-10-23T06:44:57.209Z,100768.53
2022-10-23T06:47:40.217Z,100770.63
2022-10-23T06:50:25.930Z,100758.97
2022-10-23T06:52:54.618Z,100768.59
2022-10-23T06:55:23.533Z,100758.63
2022-10-23T06:57:52.340Z,100761.78
2022-10-23T07:00:21.506Z,100756.38
2022-10-23T07:02:54.179Z,100762.09
2022-10-23T07:05:24.983Z,100752.91
2022-10-23T07:07:53.360Z,100762.03
2022-10-23T07:10:26.362Z,100761.09
2022-10-23T07:13:01.080Z,100751.50
2022-10-23T07:15:49.572Z,100750.63
2022-10-23T07:18:23.822Z,100757.97
2022-10-23T07:21:12.127Z,100759.59
2022-10-23T07:23:41.208Z,100759.09
2022-10-23T07:26:10.589Z,100746.97
2022-10-23T07:28:38.902Z,100752.97
2022-10-23T07:31:07.108Z,100741.22
2022-10-23T07:34:04.138Z,100742.00
2022-10-23T07:36:33.452Z,100741.28
2022-10-23T07:39:01.535Z,100747.91
2022-10-23T07:41:29.553Z,100754.47
2022-10-23T07:43:57.545Z,100741.91
2022-10-23T07:46:25.479Z,100749.25
2022-10-23T07:48:53.810Z,100749.03
2022-10-23T07:51:22.780Z,100710.53
2022-10-23T07:53:58.045Z,100748.94
2022-10-23T07:56:49.018Z,100747.63
2022-10-23T07:59:38.094Z,100739.28
2022-10-23T08:02:13.046Z,100746.97
2022-10-23T08:04:42.525Z,100736.63
2022-10-23T08:07:36.544Z,100726.59
2022-10-23T08:10:07.164Z,100736.75
2022-10-23T08:12:38.246Z,100740.72
2022-10-23T08:15:07.202Z,100730.53
2022-10-23T08:17:47.299Z,100729.28
2022-10-23T08:20:18.531Z,100734.22
2022-10-23T08:22:47.217Z,100728.78
2022-10-23T08:25:25.000Z,100723.31
2022-10-23T08:27:53.861Z,100724.44
2022-10-23T08:30:21.956Z,100707.66
2022-10-23T08:32:49.924Z,100719.88
2022-10-23T08:35:18.146Z,100727.25
2022-10-23T08:37:46.193Z,100726.09
2022-10-23T08:40:16.782Z,100723.41
2022-10-23T08:43:09.250Z,100711.31
2022-10-23T08:45:45.970Z,100704.25
2022-10-23T08:48:38.777Z,100711.16
2022-10-23T08:51:43.746Z,100718.03
2022-10-23T08:54:15.858Z,100706.41
2022-10-23T08:56:48.166Z,100698.13
2022-10-23T08:59:26.238Z,100686.56
2022-10-23T09:01:59.254Z,100697.25
2022-10-23T09:04:27.502Z,100695.00
2022-10-23T09:07:02.220Z,100692.00
2022-10-23T09:09:49.737Z,100691.03
2022-10-23T09:12:21.613Z,100673.91
2022-10-23T09:15:17.301Z,100687.34
2022-10-23T09:17:46.272Z,100682.31
2022-10-23T09:20:20.386Z,100691.00
2022-10-23T09:22:49.968Z,100689.47
2022-10-23T09:25:20.831Z,100683.53
2022-10-23T09:27:53.291Z,100704.66
2022-10-23T09:30:33.741Z,100710.81
2022-10-23T09:33:13.191Z,100715.56
2022-10-23T09:35:53.594Z,100715.84
2022-10-23T09:38:28.637Z,100715.97
2022-10-23T09:40:56.959Z,100714.31
2022-10-23T09:43:28.068Z,100708.72
2022-10-23T09:46:06.158Z,100710.41
2022-10-23T09:48:35.921Z,100695.22
2022-10-23T09:51:05.811Z,100701.47
2022-10-23T09:53:36.545Z,100694.56
2022-10-23T09:56:07.840Z,100693.22
2022-10-23T09:58:39.176Z,100693.28
2022-10-23T10:01:23.837Z,100685.84
2022-10-23T10:03:54.815Z,100696.03
2022-10-23T10:06:28.262Z,100682.16
2022-10-23T10:08:58.615Z,100685.72
2022-10-23T10:11:32.303Z,100683.41
2022-10-23T10:14:14.812Z,100681.19
2022-10-23T10:16:52.368Z,100672.13
2022-10-23T10:19:32.541Z,100665.75
2022-10-23T10:22:08.842Z,100671.44
2022-10-23T10:24:43.305Z,100667.44
2022-10-23T10:27:20.836Z,100659.97
2022-10-23T10:30:02.743Z,100652.31
2022-10-23T10:32:40.719Z,100644.88
2022-10-23T10:35:23.578Z,100641.63
2022-10-23T10:38:10.180Z,100634.09
2022-10-23T10:40:42.547Z,100629.94
2022-10-23T10:43:21.741Z,100631.19
2022-10-23T10:45:49.874Z,100621.44
2022-10-23T10:48:33.565Z,100598.25
2022-10-23T10:51:27.959Z,100620.66
2022-10-23T10:54:20.179Z,100623.69
2022-10-23T10:56:49.509Z,100610.22
2022-10-23T10:59:24.300Z,100606.06
2022-10-23T11:01:59.040Z,100605.22
2022-10-23T11:04:38.001Z,100605.66
2022-10-23T11:07:12.539Z,100600.97
2022-10-23T11:09:41.186Z,100601.97
2022-10-23T11:12:18.757Z,100589.19
2022-10-23T11:14:46.932Z,100597.94
2022-10-23T11:17:19.687Z,100566.50
2022-10-23T11:19:57.632Z,100586.47
2022-10-23T11:22:33.964Z,100578.88
2022-10-23T11:25:22.486Z,100574.41
2022-10-23T11:28:08.546Z,100570.16
2022-10-23T11:30:49.636Z,100570.47
2022-10-23T11:34:03.192Z,100569.63
2022-10-23T11:36:43.917Z,100567.28
2022-10-23T11:39:23.494Z,100550.47
2022-10-23T11:41:54.606Z,100542.53
2022-10-23T11:44:41.390Z,100548.31
2022-10-23T11:47:28.311Z,100549.44
2022-10-23T11:50:14.301Z,100544.19
2022-10-23T11:53:13.076Z,100533.84
2022-10-23T11:55:58.202Z,100525.88
2022-10-23T11:58:31.545Z,100520.88
2022-10-23T12:01:05.279Z,100517.13
2022-10-23T12:03:43.527Z,100481.19
2022-10-23T12:06:22.031Z,100513.00
2022-10-23T12:08:56.009Z,100502.59
2022-10-23T12:11:27.755Z,100509.78
2022-10-23T12:13:56.138Z,100502.53
2022-10-23T12:16:34.922Z,100493.03
2022-10-23T12:19:18.848Z,100487.19
2022-10-23T12:21:47.715Z,100475.75
2022-10-23T12:24:39.993Z,100470.22
2022-10-23T12:27:19.812Z,100475.22
2022-10-23T12:30:10.655Z,100472.16
2022-10-23T12:32:54.249Z,100469.09
2022-10-23T12:35:56.536Z,100454.81
2022-10-23T12:38:26.797Z,100455.25
2022-10-23T12:41:01.571Z,100443.28
2022-10-23T12:43:32.394Z,100434.47
2022-10-23T12:46:04.903Z,100421.03
2022-10-23T12:48:34.888Z,100412.91
2022-10-23T12:51:02.899Z,100400.53
2022-10-23T12:53:30.835Z,100412.50
2022-10-23T12:56:04.138Z,100417.03
2022-10-23T12:58:34.154Z,100420.34
2022-10-23T13:01:07.005Z,100421.28
2022-10-23T13:03:36.238Z,100421.09
2022-10-23T13:06:04.657Z,100406.13
2022-10-23T13:08:35.734Z,100411.34
2022-10-23T13:11:26.795Z,100412.59
2022-10-23T13:13:57.390Z,100404.66
2022-10-23T13:16:26.705Z,100407.78
2022-10-23T13:18:54.684Z,100386.41
2022-10-23T13:21:24.872Z,100384.47
2022-10-23T13:23:53.707Z,100370.19
2022-10-23T13:26:30.527Z,100362.38
2022-10-23T13:28:59.183Z,100361.78
2022-10-23T13:31:30.772Z,100339.16
2022-10-23T13:34:17.776Z,100341.47
2022-10-23T13:36:55.520Z,100347.28
2022-10-23T13:39:25.590Z,100340.53
2022-10-23T13:41:54.961Z,100355.56
2022-10-23T13:44:26.291Z,100353.59
2022-10-23T13:46:54.951Z,100349.06
2022-10-23T13:49:23.120Z,100327.69
2022-10-23T13:51:53.360Z,100366.00
2022-10-23T13:54:23.166Z,100360.44
2022-10-23T13:56:51.895Z,100353.59
2022-10-23T13:59:21.354Z,100357.34
2022-10-23T14:01:50.695Z,100365.13
2022-10-23T14:04:19.740Z,100365.38
2022-10-23T14:06:48.173Z,100351.38
2022-10-23T14:09:18.017Z,100345.44
2022-10-23T14:11:46.086Z,100341.94
2022-10-23T14:14:14.040Z,100308.69
2022-10-23T14:16:43.251Z,100330.13
2022-10-23T14:19:12.109Z,100329.53
2022-10-23T14:21:40.005Z,100318.19
2022-10-23T14:24:08.254Z,100307.72
2022-10-23T14:26:36.230Z,100298.47
2022-10-23T14:29:10.188Z,100293.34
2022-10-23T14:31:39.396Z,100295.25
2022-10-23T14:34:13.468Z,100288.75
2022-10-23T14:36:49.652Z,100287.66
2022-10-23T14:39:18.112Z,100274.00
2022-10-23T14:41:46.278Z,100275.44
2022-10-23T14:44:14.555Z,100278.00
2022-10-23T14:46:42.678Z,100278.13
2022-10-23T14:49:11.992Z,100289.47
2022-10-23T14:51:39.934Z,100283.53
2022-10-23T14:54:09.136Z,100280.16
2022-10-23T14:56:39.960Z,100261.19
2022-10-23T14:59:09.172Z,100257.09
2022-10-23T15:01:43.692Z,100248.38
2022-10-23T15:04:17.067Z,100240.56
2022-10-23T15:06:46.331Z,100238.31
2022-10-23T15:09:14.861Z,100225.22
2022-10-23T15:11:43.490Z,100218.38
2022-10-23T15:14:11.506Z,100195.94
2022-10-23T15:16:42.072Z,100197.81
2022-10-23T15:19:13.714Z,100201.38
2022-10-23T15:21:46.898Z,100209.06
2022-10-23T15:24:15.119Z,100197.56
2022-10-23T15:26:43.345Z,100191.97
2022-10-23T15:29:12.389Z,100197.91
2022-10-23T15:31:50.181Z,100208.94
2022-10-23T15:34:19.894Z,100204.19
2022-10-23T15:36:50.443Z,100208.28
2022-10-23T15:39:21.567Z,100191.72
2022-10-23T15:41:52.312Z,100195.47
2022-10-23T15:44:22.331Z,100183.34
2022-10-23T15:46:50.596Z,100184.53
2022-10-23T15:49:19.247Z,100179.97
2022-10-23T15:51:49.306Z,100172.75
2022-10-23T15:54:19.616Z,100175.28
2022-10-23T15:56:49.756Z,100179.13
2022-10-23T15:59:19.931Z,100169.97
2022-10-23T16:01:48.494Z,100163.00
2022-10-23T16:04:19.572Z,100153.50
2022-10-23T16:06:49.267Z,100147.75
2022-10-23T16:09:17.915Z,100143.75
2022-10-23T16:11:46.170Z,100130.09
2022-10-23T16:14:15.897Z,100132.19
2022-10-23T16:16:44.295Z,100125.44
2022-10-23T16:19:12.970Z,100123.72
2022-10-23T16:21:40.979Z,100123.50
2022-10-23T16:24:11.030Z,100127.41
2022-10-23T16:26:39.316Z,100139.13
2022-10-23T16:29:09.356Z,100133.03
2022-10-23T16:31:37.488Z,100128.09
2022-10-23T16:34:06.595Z,100125.91
2022-10-23T16:36:35.298Z,100129.75
2022-10-23T16:39:07.145Z,100122.53
2022-10-23T16:41:55.259Z,100129.13
2022-10-23T16:44:27.209Z,100118.63
2022-10-23T16:46:59.787Z,100124.50
2022-10-23T16:49:29.754Z,100121.06
2022-10-23T16:51:57.825Z,100116.66
2022-10-23T16:54:25.875Z,100104.66
2022-10-23T16:56:55.251Z,100097.59
2022-10-23T16:59:23.205Z,100091.88
2022-10-23T17:01:51.282Z,100083.31
2022-10-23T17:04:19.745Z,100083.91
2022-10-23T17:06:47.718Z,100069.25
2022-10-23T17:09:15.721Z,100062.78
2022-10-23T17:11:45.468Z,100056.09
2022-10-23T17:14:17.396Z,100069.88
2022-10-23T17:16:47.675Z,100064.00
2022-10-23T17:19:43.313Z,100059.75
2022-10-23T17:22:10.324Z,100063.78
2022-10-23T17:24:38.583Z,100068.31
2022-10-23T17:27:06.566Z,100059.88
2022-10-23T17:29:36.517Z,100065.59
2022-10-23T17:32:04.883Z,100062.78
2022-10-23T17:34:32.808Z,100065.84
2022-10-23T17:37:00.770Z,100070.00
2022-10-23T17:39:30.076Z,100075.34
2022-10-23T17:41:58.669Z,100086.47
2022-10-23T17:44:26.702Z,100091.75
2022-10-23T17:46:56.589Z,100095.53
2022-10-23T17:49:26.177Z,100105.06
2022-10-23T17:51:56.310Z,100114.72
2022-10-23T17:54:26.010Z,100131.72
2022-10-23T17:56:53.998Z,100150.78
2022-10-23T17:59:21.994Z,100159.97
2022-10-23T18:01:50.302Z,100166.84
2022-10-23T18:04:21.289Z,100185.66
2022-10-23T18:06:52.436Z,100194.97
2022-10-23T18:09:20.976Z,100210.38
2022-10-23T18:11:49.295Z,100216.13
2022-10-23T18:14:18.322Z,100220.63
2022-10-23T18:16:46.763Z,100209.34
2022-10-23T18:19:14.881Z,100210.00
2022-10-23T18:21:44.178Z,100208.38
2022-10-23T18:24:12.587Z,100194.16
2022-10-23T18:26:42.286Z,100191.38
2022-10-23T18:29:12.036Z,100197.34
2022-10-23T18:31:40.277Z,100193.91
2022-10-23T18:34:12.915Z,100184.88
2022-10-23T18:36:41.581Z,100184.72
2022-10-23T18:39:14.268Z,100186.91
2022-10-23T18:41:44.847Z,100192.97
2022-10-23T18:44:16.838Z,100205.53
2022-10-23T18:46:45.395Z,100197.34
2022-10-23T18:49:14.196Z,100206.72
2022-10-23T18:51:42.233Z,100212.97
2022-10-23T18:54:13.720Z,100229.56
2022-10-23T18:56:42.276Z,100231.50
2022-10-23T18:59:14.056Z,100225.06
2022-10-23T19:01:42.237Z,100223.31
2022-10-23T19:04:12.566Z,100233.41
2022-10-23T19:06:40.766Z,100220.84
2022-10-23T19:09:13.651Z,100232.44
2022-10-23T19:11:42.185Z,100219.66
2022-10-23T19:14:10.664Z,100223.53
2022-10-23T19:16:40.857Z,100221.94
2022-10-23T19:19:16.402Z,100224.41
2022-10-23T19:21:45.450Z,100222.47
2022-10-23T19:24:19.195Z,100237.69
2022-10-23T19:26:47.916Z,100226.88
2022-10-23T19:29:19.611Z,100222.94
2022-10-23T19:31:49.861Z,100221.97
2022-10-23T19:34:19.974Z,100224.66
2022-10-23T19:36:48.487Z,100223.44
2022-10-23T19:39:18.877Z,100229.81
2022-10-23T19:41:46.826Z,100216.22
2022-10-23T19:44:15.812Z,100219.19
2022-10-23T19:46:44.502Z,100214.88
2022-10-23T19:49:12.786Z,100217.41
2022-10-23T19:51:40.929Z,100227.56
2022-10-23T19:54:10.546Z,100219.28
2022-10-23T19:56:40.097Z,100209.72
2022-10-23T19:59:08.489Z,100211.78
2022-10-23T20:01:36.482Z,100214.31
2022-10-23T20:04:04.602Z,100212.31
2022-10-23T20:06:35.393Z,100201.91
2022-10-23T20:09:07.928Z,100197.63
2022-10-23T20:11:37.249Z,100189.81
2022-10-23T20:14:07.132Z,100176.78
2022-10-23T20:16:37.443Z,100161.38
2022-10-23T20:19:07.247Z,100124.91
2022-10-23T20:21:36.956Z,100108.19
2022-10-23T20:24:05.475Z,100121.06
2022-10-23T20:26:33.763Z,100078.06
2022-10-23T20:29:01.729Z,100076.50
2022-10-23T20:31:31.131Z,100073.28
2022-10-23T20:33:59.210Z,100072.63
2022-10-23T20:36:28.821Z,100093.28
2022-10-23T20:38:57.947Z,100134.25
2022-10-23T20:41:28.446Z,100134.16
2022-10-23T20:43:57.044Z,100105.63
2022-10-23T20:46:25.200Z,100053.44
2022-10-23T20:48:54.695Z,99997.00
2022-10-23T20:51:24.308Z,100001.69
2022-10-23T20:53:53.064Z,99990.00
2022-10-23T20:56:24.227Z,100057.22
2022-10-23T20:58:52.198Z,100098.13
2022-10-23T21:01:20.248Z,100083.56
2022-10-23T21:03:51.237Z,100039.22
2022-10-23T21:06:21.089Z,100062.00
2022-10-23T21:08:49.063Z,100058.47
2022-10-23T21:11:18.505Z,100048.75
2022-10-23T21:13:46.441Z,100056.47
2022-10-23T21:16:15.592Z,100072.22
2022-10-23T21:18:46.489Z,100078.00
2022-10-23T21:21:16.998Z,100083.16
2022-10-23T21:23:46.983Z,100075.13
2022-10-23T21:26:16.652Z,100066.97
2022-10-23T21:28:55.672Z,100079.94
2022-10-23T21:31:34.426Z,100076.28
2022-10-23T21:34:02.606Z,100077.38
2022-10-23T21:36:34.018Z,100088.41
2022-10-23T21:39:04.781Z,100099.63
2022-10-23T21:41:34.829Z,100094.50
2022-10-23T21:44:04.468Z,100103.41
2022-10-23T21:46:34.108Z,100103.84
2022-10-23T21:49:02.472Z,100089.59
2022-10-23T21:51:32.284Z,100097.94
2022-10-23T21:54:00.516Z,100091.84
2022-10-23T21:56:32.647Z,100087.97
2022-10-23T21:59:02.264Z,100079.41
2022-10-23T22:01:30.948Z,100074.25
2022-10-23T22:03:59.042Z,100068.50
2022-10-23T22:06:29.339Z,100072.00
2022-10-23T22:08:59.225Z,100065.06
2022-10-23T22:11:28.052Z,100063.88
2022-10-23T22:13:57.783Z,100052.19
2022-10-23T22:16:25.816Z,100059.28
2022-10-23T22:18:54.033Z,100056.94
2022-10-23T22:21:23.925Z,100055.75
2022-10-23T22:23:52.701Z,100053.38
2022-10-23T22:26:24.085Z,100056.94
2022-10-23T22:28:54.050Z,100083.25
2022-10-23T22:31:25.633Z,100088.50
2022-10-23T22:33:54.328Z,100091.38
2022-10-23T22:36:22.436Z,100096.94
2022-10-23T22:38:50.514Z,100092.88
2022-10-23T22:41:19.010Z,100094.25
2022-10-23T22:43:47.033Z,100093.63
2022-10-23T22:46:16.628Z,100081.97
2022-10-23T22:48:46.824Z,100099.75
2022-10-23T22:51:16.629Z,100106.28
2022-10-23T22:53:45.040Z,100108.41
2022-10-23T22:56:15.448Z,100102.63
2022-10-23T22:58:43.576Z,100106.25
2022-10-23T23:01:15.553Z,100109.25
2022-10-23T23:03:45.776Z,100111.69
2022-10-23T23:06:13.984Z,100131.00
2022-10-23T23:08:42.754Z,100119.94
2022-10-23T23:11:14.106Z,100117.19
2022-10-23T23:13:42.914Z,100089.44
2022-10-23T23:16:18.881Z,100100.19
2022-10-23T23:18:48.702Z,100095.88
2022-10-23T23:21:17.234Z,100105.31
2022-10-23T23:23:45.541Z,100100.66
2022-10-23T23:26:14.516Z,100110.03
2022-10-23T23:28:42.646Z,100103.81
2022-10-23T23:31:13.471Z,100110.97
2022-10-23T23:33:41.357Z,100111.63
2022-10-23T23:36:13.381Z,100107.69
2022-10-23T23:38:41.411Z,100109.00
2022-10-23T23:41:13.322Z,100096.63
2022-10-23T23:43:41.495Z,100101.56
2022-10-23T23:46:09.563Z,100097.78
2022-10-23T23:48:37.803Z,100104.53
2022-10-23T23:51:06.492Z,100087.75
2022-10-23T23:53:35.723Z,100093.19
2022-10-23T23:56:03.608Z,100090.19
2022-10-23T23:58:31.533Z,100095.56
